Tiempo atmosférico en la estación meteorológica de Forua, Bizkaia (45 m.)

Fecha
DESCASC
Temp. máxima en grados centígrados (hora)
DESCASC
Temp. mínima en grados centígrados (hora)
DESCASC
Temp. media en grados centígrados
DESCASC
Racha de viento máxima en m/sg (hora)
DESCASC
Velocidad máxima media en intervalos de 10 minutos(hora)
DESCASC
Precipitaciones diarias en mm
DESCASC
Precipitaciones de 00:00 a 06:00 en mm
DESCASC
Precipitaciones de 06:00 a 12:00 en mm
DESCASC
Precipitaciones de 12:00 a 18:00 en mm
DESCASC
Precipitaciones de 18:00 a 24:00 en mm
DESCASC
21-08-2017 30.4 (15:50) 11.3 (07:30) 20.8 8.61 (16:40) 5.28 (16:40) 0 0 0 0 0
20-08-2017 22.7 (13:10) 11.6 (07:20) 17.2 8.33 (15:00) 5.56 (14:50) 0 0 0 0 0
19-08-2017 23 (12:40) 15.1 (23:59) 19.1 8.61 (14:10) 5 (13:20) 0.6 0 0.6 0 0
18-08-2017 25 (13:40) 16.1 (02:30) 20.6 8.33 (14:30) 5 (14:30) 0.2 0 0 0.2 0
17-08-2017 26.7 (14:10) 13.9 (00:00) 20.3 8.33 (16:00) 5 (15:50) 0 0 0 0 0
16-08-2017 26.4 (16:10) 17.4 (00:00) 21.9 7.22 (16:30) 4.17 (16:10) 0 0 0 0 0
15-08-2017 21.6 (17:50) 17.8 (00:00) 19.7 5.28 (15:40) 2.78 (00:30) 0 0 0 0 0
14-08-2017 36.8 (15:30) 14 (07:40) 25.4 10.56 (18:10) 5.28 (17:20) 14.6 0 0 0 14.6
13-08-2017 23.6 (15:50) 13.1 (00:00) 18.4 7.78 (13:30) 4.44 (13:30) 0 0 0 0 0
12-08-2017 23.8 (17:40) 10.1 (00:00) 16.9 7.78 (16:10) 4.72 (16:00) 0 0 0 0 0
11-08-2017 22.2 (13:40) 11.5 (00:00) 16.9 8.61 (14:10) 4.17 (14:00) 0.2 0 0.2 0 0
10-08-2017 20.8 (18:20) 13.3 (00:00) 17 9.17 (13:10) 5.83 (18:00) 4.4 1.6 1.2 1.6 0
09-08-2017 22 (16:50) 14.3 (00:00) 18.2 11.94 (16:00) 6.94 (14:10) 9.6 0 7.2 1 1.4
08-08-2017 21.2 (18:50) 15.4 (00:00) 18.3 10.56 (14:00) 5 (11:10) 1.6 0.4 0.2 0.8 0.2
07-08-2017 26.3 (13:30) 15.8 (00:00) 21 10.28 (23:40) 6.39 (23:40) 1.2 0 0 0 1.2
06-08-2017 24.3 (16:50) 16.2 (00:00) 20.3 7.78 (17:20) 4.17 (15:50) 0 0 0 0 0
05-08-2017 21.7 (00:00) 17.2 (00:00) 19.5 8.61 (14:40) 4.72 (14:40) 7.4 3.6 1.8 1.2 0.8
04-08-2017 31.4 (14:00) 19.1 (00:00) 25.3 7.22 (15:30) 4.44 (15:30) 0 0 0 0 0
03-08-2017 29.4 (16:20) 15.1 (00:00) 22.3 7.78 (18:40) 5 (18:40) 0 0 0 0 0
02-08-2017 27.4 (14:30) 15.6 (00:00) 21.5 8.61 (15:40) 5.28 (15:40) 0 0 0 0 0
01-08-2017 23.7 (15:10) 16.6 (00:00) 20.2 7.5 (18:20) 3.89 (15:10) 0.8 0 0.8 0 0
31-07-2017 20.4 (13:10) 17.4 (00:00) 18.9 5 (14:30) 3.33 (17:10) 3.4 0 2.6 0.8 0
30-07-2017 23.1 (14:40) 17.4 (00:00) 20.3 7.22 (15:00) 4.17 (14:40) 0.2 0 0 0.2 0
29-07-2017 29.9 (16:40) 15.9 (00:00) 22.9 7.22 (15:10) 5 (15:30) 0 0 0 0 0
28-07-2017 24.8 (15:10) 18.6 (00:00) 21.7 6.67 (16:30) 4.17 (16:00) 0.2 0.2 0 0 0
27-07-2017 -- (--) -- (--) -- -- (--) -- (--) -- 0 -- -- 0
26-07-2017 25.1 (14:40) 13.3 (00:00) 19.2 7.5 (15:30) 4.72 (15:20) 0 0 0 0 0
25-07-2017 21.7 (19:50) 14.9 (00:00) 18.3 6.94 (17:10) 3.89 (16:10) 0.6 0.2 0.2 0.2 0
24-07-2017 21.8 (13:20) 16.6 (00:00) 19.2 10.56 (12:30) 5.28 (13:30) 7 1.6 0.8 1.6 3
23-07-2017 25.8 (16:00) 15.4 (00:00) 20.6 10.56 (13:10) 4.72 (17:30) 0 0 0 0 0

Gráficas

Temp. máximas Temp. mínimas Temp. medias Precipitaciones Rachas de viento máximas Velocidades máximas media en intervalos de 10 minutos

Datos horarios

Fecha y hora oficial Temperatura (ºC) Velocidad del viento (km/h) Dirección del viento Racha (km/h) Dirección de racha Precipitación (mm) Presión (hPa) Tendencia (hPa) Humedad (%)
2017-08-21 23:00:00 21 7 Sudoeste 12 Sudoeste 0 -- -- 81
2017-08-21 22:00:00 23 4 Norte 13 Nordeste 0 -- -- 71
2017-08-21 21:00:00 25.4 9 Nordeste 19 Nordeste 0 -- -- 62
2017-08-21 20:00:00 29.8 10 Norte 21 Nordeste 0 -- -- 50
2017-08-21 19:00:00 30.1 11 Nordeste 22 Este 0 -- -- 47
2017-08-21 18:00:00 29.5 15 Este 31 Este 0 -- -- 47
2017-08-21 17:00:00 29.3 17 Este 31 Nordeste 0 -- -- 46
2017-08-21 16:00:00 30.1 13 Nordeste 27 Norte 0 -- -- 47
2017-08-21 15:00:00 29.1 14 Norte 28 Norte 0 -- -- 53
2017-08-21 14:00:00 27.8 13 Norte 24 Norte 0 -- -- 54
2017-08-21 13:00:00 27.7 11 Nordeste 21 Norte 0 -- -- 52
2017-08-21 12:00:00 26.1 7 Norte 11 Nordeste 0 -- -- 54
2017-08-21 11:00:00 21.8 3 Nordeste 7 Nordeste 0 -- -- 73
2017-08-21 10:00:00 17.7 0 Calma 6 Sudoeste 0 -- -- 86
2017-08-21 09:00:00 14.1 4 Sudoeste 9 Sur 0 -- -- 97
2017-08-21 08:00:00 11.6 5 Sudoeste 9 Sudoeste 0 -- -- 100
2017-08-21 07:00:00 11.5 3 Sudoeste 9 Oeste 0 -- -- 99
2017-08-21 06:00:00 11.7 6 Sudoeste 10 Sudoeste 0 -- -- 99
2017-08-21 05:00:00 12 7 Sudoeste 10 Sudoeste 0 -- -- 98
2017-08-21 04:00:00 12.6 5 Sudoeste 9 Sur 0 -- -- 96
2017-08-21 03:00:00 12.8 6 Sudoeste 8 Sudoeste 0 -- -- 96
2017-08-21 02:00:00 13.4 4 Sudoeste 8 Sudeste 0 -- -- 95
2017-08-21 01:00:00 14.1 3 Sudoeste 7 Sudoeste 0 -- -- 92
2017-08-21 00:00:00 15.4 0 Calma 6 Este 0 -- -- 87
2017-08-20 23:00:00 16.5 3 Este 7 Nordeste 0 -- -- 83
2017-08-20 22:00:00 16.9 4 Norte 6 Norte 0 -- -- 80
2017-08-20 21:00:00 18.5 3 Nordeste 19 Este 0 -- -- 74
2017-08-20 20:00:00 20.5 11 Este 21 Este 0 -- -- 66
2017-08-20 19:00:00 21.3 13 Este 24 Este 0 -- -- 64
2017-08-20 18:00:00 21.9 13 Este 27 Este 0 -- -- 63
2017-08-20 17:00:00 22.2 17 Este 30 Este 0 -- -- 63
2017-08-20 16:00:00 22.3 16 Este 29 Este 0 -- -- 63
2017-08-20 15:00:00 22.3 18 Este 30 Este 0 -- -- 62
2017-08-20 14:00:00 22.5 15 Este 26 Este 0 -- -- 63
2017-08-20 13:00:00 22.5 12 Este 22 Este 0 -- -- 62
2017-08-20 12:00:00 20.9 8 Este 14 Este 0 -- -- 69
2017-08-20 11:00:00 18.6 0 Calma 7 Sudeste 0 -- -- 82
2017-08-20 10:00:00 15.9 3 Oeste 8 Sudoeste 0 -- -- 98
2017-08-20 09:00:00 13.3 3 Sudoeste 7 Sudoeste 0 -- -- 100
2017-08-20 08:00:00 11.7 6 Sudoeste 9 Sudoeste 0 -- -- 100
2017-08-20 07:00:00 11.7 4 Sudoeste 8 Sudoeste 0 -- -- 100
2017-08-20 06:00:00 12.1 5 Sudoeste 8 Sudoeste 0 -- -- 100
2017-08-20 05:00:00 12.3 5 Sudoeste 8 Sudoeste 0 -- -- 99
2017-08-20 04:00:00 12.7 5 Sudoeste 9 Sudoeste 0 -- -- 98
2017-08-20 03:00:00 13.2 3 Oeste 6 Sudoeste 0 -- -- 98
2017-08-20 02:00:00 13.8 5 Sudoeste 9 Sudoeste 0 -- -- 97
2017-08-20 01:00:00 14.6 4 Sudoeste 7 Sudoeste 0 -- -- 95
2017-08-20 00:00:00 15.1 5 Sudoeste 8 Sur 0 -- -- 94
2017-08-19 23:00:00 16.5 0 Calma 4 Este 0 -- -- 90
2017-08-19 22:00:00 17.2 2 Nordeste 6 Este 0 -- -- 85
2017-08-19 21:00:00 18.3 3 Nordeste 14 Este 0 -- -- 80
2017-08-19 20:00:00 19.6 8 Este 19 Este 0 -- -- 76
2017-08-19 19:00:00 20.9 12 Este 23 Este 0 -- -- 71
2017-08-19 18:00:00 20.5 14 Este 25 Este 0 -- -- 73
2017-08-19 17:00:00 21 16 Este 27 Este 0 -- -- 74
2017-08-19 16:00:00 21.3 16 Este 27 Este 0 -- -- 76
2017-08-19 15:00:00 22.4 16 Este 31 Sudeste 0 -- -- 72
2017-08-19 14:00:00 22.6 17 Este 28 Sudeste 0 -- -- 73
2017-08-19 13:00:00 22.7 16 Este 26 Este 0 -- -- 74
2017-08-19 12:00:00 21.7 11 Este 21 Sudeste 0 -- -- 77
2017-08-19 11:00:00 19.4 5 Nordeste 15 Este 0 -- -- 92
2017-08-19 10:00:00 17.6 4 Sudoeste 8 Sudoeste 0.2 -- -- 100
2017-08-19 09:00:00 16.9 0 Calma 6 Sudoeste 0.4 -- -- 100
2017-08-19 08:00:00 16.5 4 Sudoeste 9 Sudoeste 0 -- -- 99
2017-08-19 07:00:00 17.1 5 Sudoeste 9 Oeste 0 -- -- 98
2017-08-19 06:00:00 18 2 Oeste 6 Nordeste 0 -- -- 93
2017-08-19 05:00:00 18.3 3 Norte 9 Norte 0 -- -- 93
2017-08-19 04:00:00 18.3 0 Calma 5 Oeste 0 -- -- 97
2017-08-19 03:00:00 18.4 3 Noroeste 7 Norte 0 -- -- 98
2017-08-19 02:00:00 18.3 0 Calma 4 Sudeste 0 -- -- 97
2017-08-19 01:00:00 18.3 3 Noroeste 5 Sudeste 0 -- -- 97
2017-08-19 00:00:00 18.8 0 Calma 6 Noroeste 0 -- -- 94
2017-08-18 23:00:00 19.1 3 Sudoeste 8 Oeste 0 -- -- 90
2017-08-18 22:00:00 19.7 0 Calma 8 Norte 0 -- -- 86
2017-08-18 21:00:00 20.7 5 Norte 14 Norte 0 -- -- 84
2017-08-18 20:00:00 22.2 9 Nordeste 21 Nordeste 0 -- -- 77
2017-08-18 19:00:00 22.2 9 Nordeste 21 Nordeste 0 -- -- 78
2017-08-18 18:00:00 23.5 9 Nordeste 17 Nordeste 0 -- -- 76
2017-08-18 17:00:00 23.5 5 Nordeste 11 Norte 0 -- -- 81
2017-08-18 16:00:00 21.5 5 Norte 17 Nordeste 0.2 -- -- 92
2017-08-18 15:00:00 20.8 9 Nordeste 30 Nordeste 0 -- -- 89
2017-08-18 14:00:00 23.9 8 Nordeste 20 Norte 0 -- -- 76
2017-08-18 13:00:00 22.9 9 Nordeste 17 Nordeste 0 -- -- 82
2017-08-18 12:00:00 23.5 3 Sudoeste 9 Oeste 0 -- -- 78
2017-08-18 11:00:00 21.1 5 Sudoeste 11 Sudoeste 0 -- -- 91
2017-08-18 10:00:00 19.3 3 Sudoeste 9 Sudoeste 0 -- -- 98
2017-08-18 09:00:00 18.4 6 Sudoeste 8 Sudoeste 0 -- -- 99
2017-08-18 08:00:00 17.7 5 Oeste 6 Oeste 0 -- -- 100
2017-08-18 07:00:00 17.4 3 Sudoeste 9 Sudoeste 0 -- -- 99
2017-08-18 06:00:00 17.1 3 Sudoeste 10 Sudoeste 0 -- -- 99
2017-08-18 05:00:00 16.8 8 Sudoeste 12 Sudoeste 0 -- -- 98
2017-08-18 04:00:00 16.7 5 Sudoeste 9 Sudoeste 0 -- -- 98
2017-08-18 03:00:00 16.4 5 Sudoeste 9 Sur 0 -- -- 98
2017-08-18 02:00:00 16.5 4 Sudoeste 6 Sudoeste 0 -- -- 96
2017-08-18 01:00:00 17.2 5 Sudoeste 8 Sudoeste 0 -- -- 95
2017-08-18 00:00:00 18.2 4 Oeste 6 Oeste 0 -- -- 93
2017-08-17 23:00:00 19.3 2 Este 12 Norte 0 -- -- 90
2017-08-17 22:00:00 20.1 7 Norte 19 Norte 0 -- -- 85
2017-08-17 21:00:00 21.4 12 Norte 23 Norte 0 -- -- 79
2017-08-17 20:00:00 24.8 13 Norte 22 Norte 0 -- -- 70
2017-08-17 19:00:00 26.2 9 Norte 18 Norte 0 -- -- 64
2017-08-17 18:00:00 25.9 9 Norte 25 Norte 0 -- -- 66
2017-08-17 17:00:00 25.9 13 Norte 27 Nordeste 0 -- -- 69
2017-08-17 16:00:00 26.1 16 Norte 30 Norte 0 -- -- 72
2017-08-17 15:00:00 26.4 14 Norte 27 Norte 0 -- -- 70
2017-08-17 14:00:00 26.6 17 Norte 25 Norte 0 -- -- 68
2017-08-17 13:00:00 25.6 9 Norte 19 Norte 0 -- -- 65
2017-08-17 12:00:00 25.1 10 Norte 17 Norte 0 -- -- 68
2017-08-17 11:00:00 22.9 3 Norte 9 Sudoeste 0 -- -- 70
2017-08-17 10:00:00 19.7 4 Sudoeste 9 Sur 0 -- -- 83
2017-08-17 09:00:00 17.2 0 Calma 10 Sudoeste 0 -- -- 94
2017-08-17 08:00:00 14.2 4 Sudoeste 8 Sudoeste 0 -- -- 100
2017-08-17 07:00:00 14 5 Sudoeste 8 Sudoeste 0 -- -- 99
2017-08-17 06:00:00 14.5 5 Sudoeste 9 Sudoeste 0 -- -- 99
2017-08-17 05:00:00 14.9 5 Sudoeste 10 Sur 0 -- -- 99
2017-08-17 04:00:00 15.1 8 Sudoeste 10 Sudoeste 0 -- -- 98
2017-08-17 03:00:00 15.6 5 Sudoeste 11 Sudoeste 0 -- -- 98
2017-08-17 02:00:00 15.9 6 Sudoeste 10 Sudoeste 0 -- -- 97
2017-08-17 01:00:00 16.7 4 Sudoeste 10 Sudoeste 0 -- -- 96
2017-08-17 00:00:00 17.4 3 Sur 8 Sudoeste 0 -- -- 94
2017-08-16 23:00:00 18.5 0 Calma 5 Sudoeste 0 -- -- 91
2017-08-16 22:00:00 19.6 2 Nordeste 13 Norte 0 -- -- 85
2017-08-16 21:00:00 21.1 10 Norte 18 Norte 0 -- -- 81
2017-08-16 20:00:00 23.7 8 Norte 18 Norte 0 -- -- 74
2017-08-16 19:00:00 24.4 8 Norte 18 Norte 0 -- -- 71
2017-08-16 18:00:00 24.5 8 Este 18 Este 0 -- -- 69
2017-08-16 17:00:00 24.4 11 Este 26 Norte 0 -- -- 70
2017-08-16 16:00:00 26.1 12 Norte 22 Norte 0 -- -- 67
2017-08-16 15:00:00 25.6 12 Nordeste 22 Norte 0 -- -- 72
2017-08-16 14:00:00 25.5 12 Norte 21 Norte 0 -- -- 68
2017-08-16 13:00:00 24.3 9 Norte 19 Nordeste 0 -- -- 72
2017-08-16 12:00:00 22.5 8 Nordeste 15 Norte 0 -- -- 79
2017-08-16 11:00:00 22.6 6 Norte 12 Norte 0 -- -- 80
2017-08-16 10:00:00 21.1 5 Sudeste 8 Sudeste 0 -- -- 89
2017-08-16 09:00:00 18.3 0 Calma 4 Sur 0 -- -- 100
2017-08-16 08:00:00 18 0 Calma 3 Sudoeste 0 -- -- 100
2017-08-16 07:00:00 18 3 Oeste 4 Sudoeste 0 -- -- 99
2017-08-16 06:00:00 18 0 Calma 2 Oeste 0 -- -- 99
2017-08-16 05:00:00 18 0 Calma 2 Norte 0 -- -- 99
2017-08-16 04:00:00 18 0 Calma 2 Norte 0 -- -- 99
2017-08-16 03:00:00 18.1 2 Sudoeste 3 Sur 0 -- -- 98
2017-08-16 02:00:00 18.4 2 Sudoeste 4 Oeste 0 -- -- 97
2017-08-16 01:00:00 18.6 0 Calma 3 Sur 0 -- -- 96
2017-08-16 00:00:00 18.8 0 Calma 3 Sudeste 0 -- -- 95
2017-08-15 23:00:00 19 0 Calma 4 Sudeste 0 -- -- 94
2017-08-15 22:00:00 19.6 3 Norte 6 Norte 0 -- -- 90
2017-08-15 21:00:00 20.1 4 Norte 10 Norte 0 -- -- 89
2017-08-15 20:00:00 20.7 6 Norte 12 Norte 0 -- -- 86
2017-08-15 19:00:00 21.3 6 Norte 17 Nordeste 0 -- -- 84
2017-08-15 18:00:00 21.6 9 Nordeste 16 Nordeste 0 -- -- 82
2017-08-15 17:00:00 21 7 Nordeste 13 Nordeste 0 -- -- 85
2017-08-15 16:00:00 20.5 8 Nordeste 19 Nordeste 0 -- -- 88
2017-08-15 15:00:00 20.5 8 Nordeste 17 Nordeste 0 -- -- 89
2017-08-15 14:00:00 20.5 8 Nordeste 18 Nordeste 0 -- -- 91
2017-08-15 13:00:00 20.7 6 Nordeste 15 Norte 0 -- -- 91
2017-08-15 12:00:00 20.6 6 Norte 13 Norte 0 -- -- 94
2017-08-15 11:00:00 20.5 2 Nordeste 8 Este 0 -- -- 99
2017-08-15 10:00:00 19.7 5 Oeste 7 Oeste 0 -- -- 100
2017-08-15 09:00:00 19 0 Calma 6 Sudeste 0 -- -- 100
2017-08-15 08:00:00 18.6 0 Calma 8 Noroeste 0 -- -- 100
2017-08-15 07:00:00 18.4 2 Noroeste 8 Sudoeste 0 -- -- 100
2017-08-15 06:00:00 18.5 5 Sudoeste 7 Sudoeste 0 -- -- 100
2017-08-15 05:00:00 18.1 4 Oeste 9 Noroeste 0 -- -- 100
2017-08-15 04:00:00 17.8 2 Sur 6 Noroeste 0 -- -- 100
2017-08-15 03:00:00 18.4 5 Sudoeste 9 Sudoeste 0 -- -- 100
2017-08-15 02:00:00 18.9 0 Calma 10 Oeste 0 -- -- 100
2017-08-15 01:00:00 19.1 4 Nordeste 15 Noroeste 0 -- -- 100
2017-08-15 00:00:00 19.2 6 Sur 11 Sudoeste 0 -- -- 100
2017-08-14 23:00:00 19.4 4 Sudoeste 15 Sur 0 -- -- 98
2017-08-14 22:00:00 19.9 8 Sudoeste 24 Sudoeste 0 -- -- 97
2017-08-14 21:00:00 20.3 6 Sur 12 Norte 0 -- -- 98
2017-08-14 20:00:00 21.1 5 Sur 13 Sudoeste 10 -- -- 98
2017-08-14 19:00:00 21.9 15 Oeste 38 Oeste 4.6 -- -- 91
2017-08-14 18:00:00 27.1 8 Sudoeste 30 Nordeste 0 -- -- 65
2017-08-14 17:00:00 30.7 9 Nordeste 17 Norte 0 -- -- 62
2017-08-14 16:00:00 33.1 10 Nordeste 22 Sudoeste 0 -- -- 54
2017-08-14 15:00:00 36 15 Sudoeste 26 Oeste 0 -- -- 34
2017-08-14 14:00:00 34.7 13 Sudoeste 27 Oeste 0 -- -- 38
2017-08-14 13:00:00 30.1 5 Norte 12 Nordeste 0 -- -- 62
2017-08-14 12:00:00 28.2 4 Sur 9 Sudeste 0 -- -- 59
2017-08-14 11:00:00 24.4 2 Sudeste 6 Sudeste 0 -- -- 74
2017-08-14 10:00:00 20.2 2 Sudoeste 6 Oeste 0 -- -- 85
2017-08-14 09:00:00 16.7 4 Sudoeste 9 Sudoeste 0 -- -- 98
2017-08-14 08:00:00 14.3 6 Sudoeste 10 Sudoeste 0 -- -- 100
2017-08-14 07:00:00 14.2 5 Sudoeste 10 Sudoeste 0 -- -- 99
2017-08-14 06:00:00 14.5 5 Sudoeste 9 Sudoeste 0 -- -- 98
2017-08-14 05:00:00 15 4 Sudoeste 10 Sudoeste 0 -- -- 97
2017-08-14 04:00:00 15.6 7 Sudoeste 13 Sudoeste 0 -- -- 96
2017-08-14 03:00:00 16 5 Sudoeste 11 Sudoeste 0 -- -- 97
2017-08-14 02:00:00 16.1 5 Sur 8 Sudoeste 0 -- -- 97
2017-08-14 01:00:00 16.1 5 Sudoeste 7 Oeste 0 -- -- 96
2017-08-14 00:00:00 17 0 Calma 6 Nordeste 0 -- -- 93
2017-08-13 23:00:00 18.1 6 Nordeste 10 Norte 0 -- -- 90
2017-08-13 22:00:00 19.1 4 Nordeste 14 Nordeste 0 -- -- 85
2017-08-13 21:00:00 20 9 Nordeste 17 Norte 0 -- -- 81
2017-08-13 20:00:00 22.1 7 Nordeste 19 Nordeste 0 -- -- 72
2017-08-13 19:00:00 22.4 10 Nordeste 23 Este 0 -- -- 72
2017-08-13 18:00:00 22.6 13 Este 24 Este 0 -- -- 70
2017-08-13 17:00:00 23 14 Este 27 Este 0 -- -- 69
2017-08-13 16:00:00 23.4 15 Este 27 Este 0 -- -- 69
2017-08-13 15:00:00 23.1 13 Este 26 Este 0 -- -- 73
2017-08-13 14:00:00 23.1 16 Este 28 Sudeste 0 -- -- 72
2017-08-13 13:00:00 23.3 14 Este 26 Este 0 -- -- 72
2017-08-13 12:00:00 22.8 9 Este 17 Este 0 -- -- 73
2017-08-13 11:00:00 20.5 3 Norte 8 Nordeste 0 -- -- 84
2017-08-13 10:00:00 17.6 0 Calma 6 Oeste 0 -- -- 89
2017-08-13 09:00:00 15.7 3 Sudoeste 6 Sudoeste 0 -- -- 95
2017-08-13 08:00:00 14.9 2 Sudoeste 8 Sudoeste 0 -- -- 96
2017-08-13 07:00:00 14.6 4 Sudoeste 8 Sudoeste 0 -- -- 96
2017-08-13 06:00:00 14.3 4 Sudoeste 9 Sudoeste 0 -- -- 97
2017-08-13 05:00:00 13.9 4 Sudoeste 8 Sur 0 -- -- 98
2017-08-13 04:00:00 13.5 6 Sudoeste 8 Sudoeste 0 -- -- 98
2017-08-13 03:00:00 13.2 5 Sudoeste 8 Sudoeste 0 -- -- 98
2017-08-13 02:00:00 13.3 5 Sudoeste 9 Sudoeste 0 -- -- 97
2017-08-13 01:00:00 14.1 3 Sudoeste 6 Sur 0 -- -- 95
2017-08-13 00:00:00 14.8 4 Sudoeste 9 Oeste 0 -- -- 93
2017-08-12 23:00:00 16.1 2 Norte 6 Sudeste 0 -- -- 89
2017-08-12 22:00:00 17.7 4 Nordeste 7 Este 0 -- -- 81
2017-08-12 21:00:00 18.8 5 Norte 18 Nordeste 0 -- -- 77
2017-08-12 20:00:00 21.2 9 Nordeste 17 Nordeste 0 -- -- 67
2017-08-12 19:00:00 21.6 10 Nordeste 22 Este 0 -- -- 69
2017-08-12 18:00:00 22.9 13 Este 21 Este 0 -- -- 65
2017-08-12 17:00:00 22.5 12 Este 28 Este 0 -- -- 66
2017-08-12 16:00:00 22.6 17 Este 26 Este 0 -- -- 65
2017-08-12 15:00:00 23.2 13 Este 22 Este 0 -- -- 64
2017-08-12 14:00:00 22.7 12 Este 25 Este 0 -- -- 63
2017-08-12 13:00:00 22.7 13 Este 21 Este 0 -- -- 63
2017-08-12 12:00:00 22.4 5 Nordeste 13 Nordeste 0 -- -- 63
2017-08-12 11:00:00 20.1 4 Norte 7 Norte 0 -- -- 72
2017-08-12 10:00:00 16.9 4 Sudoeste 10 Sur 0 -- -- 86
2017-08-12 09:00:00 13.7 3 Sudoeste 8 Sudoeste 0 -- -- 98
2017-08-12 08:00:00 10.3 2 Sudoeste 12 Sudoeste 0 -- -- 100
2017-08-12 07:00:00 10.4 4 Sudoeste 8 Sudoeste 0 -- -- 99
2017-08-12 06:00:00 10.5 6 Sudoeste 10 Sudoeste 0 -- -- 99
2017-08-12 05:00:00 10.6 5 Sudoeste 10 Sudoeste 0 -- -- 99
2017-08-12 04:00:00 11 5 Sudoeste 8 Sur 0 -- -- 98
2017-08-12 03:00:00 11.4 7 Sudoeste 12 Sur 0 -- -- 97
2017-08-12 02:00:00 11.9 5 Sudoeste 8 Sudoeste 0 -- -- 96
2017-08-12 01:00:00 12.5 5 Sudoeste 6 Sudoeste 0 -- -- 94
2017-08-12 00:00:00 13.3 3 Oeste 7 Sur 0 -- -- 92
2017-08-11 23:00:00 14.8 5 Sudoeste 6 Sudoeste 0 -- -- 86
2017-08-11 22:00:00 16.7 2 Este 5 Norte 0 -- -- 77
2017-08-11 21:00:00 18.2 4 Norte 14 Norte 0 -- -- 72
2017-08-11 20:00:00 21.6 8 Norte 16 Norte 0 -- -- 63
2017-08-11 19:00:00 21.5 9 Norte 20 Norte 0 -- -- 62
2017-08-11 18:00:00 21.3 12 Nordeste 23 Nordeste 0 -- -- 64
2017-08-11 17:00:00 21.2 13 Nordeste 26 Nordeste 0 -- -- 62
2017-08-11 16:00:00 21.3 13 Nordeste 27 Nordeste 0 -- -- 61
2017-08-11 15:00:00 21.6 11 Nordeste 31 Nordeste 0 -- -- 63
2017-08-11 14:00:00 21.4 15 Nordeste 27 Nordeste 0 -- -- 62
2017-08-11 13:00:00 22 11 Nordeste 25 Nordeste 0 -- -- 60
2017-08-11 12:00:00 20.2 14 Norte 24 Nordeste 0 -- -- 66
2017-08-11 11:00:00 19.5 4 Este 9 Este 0.2 -- -- 75
2017-08-11 10:00:00 17.5 4 Sudoeste 9 Sudoeste 0 -- -- 84
2017-08-11 09:00:00 14.5 4 Sudoeste 9 Sudoeste 0 -- -- 98
2017-08-11 08:00:00 11.9 5 Sudoeste 9 Sudoeste 0 -- -- 100
2017-08-11 07:00:00 11.6 4 Sudoeste 10 Sur 0 -- -- 100
2017-08-11 06:00:00 11.6 5 Sudoeste 9 Sudoeste 0 -- -- 99
2017-08-11 05:00:00 11.8 5 Sur 11 Sudoeste 0 -- -- 99
2017-08-11 04:00:00 12 4 Sudoeste 9 Sudoeste 0 -- -- 99
2017-08-11 03:00:00 12.2 5 Sudoeste 10 Sur 0 -- -- 97
2017-08-11 02:00:00 12.3 5 Sudoeste 10 Sudoeste 0 -- -- 96
2017-08-11 01:00:00 12.8 6 Sudoeste 10 Sur 0 -- -- 95
2017-08-11 00:00:00 13.3 7 Sudoeste 12 Sudoeste 0 -- -- 93
2017-08-10 23:00:00 14 7 Sudoeste 13 Sudoeste 0 -- -- 91
2017-08-10 22:00:00 15.6 6 Norte 22 Norte 0 -- -- 76
2017-08-10 21:00:00 17.2 14 Norte 31 Norte 0 -- -- 71
2017-08-10 20:00:00 19.5 16 Norte 31 Norte 0 -- -- 66
2017-08-10 19:00:00 19.7 14 Norte 28 Norte 0 -- -- 70
2017-08-10 18:00:00 20.2 21 Norte 32 Norte 0 -- -- 71
2017-08-10 17:00:00 19.6 11 Norte 24 Nordeste 0.2 -- -- 81
2017-08-10 16:00:00 17 9 Norte 22 Noroeste 1.4 -- -- 90
2017-08-10 15:00:00 19.2 4 Noroeste 28 Noroeste 0 -- -- 76
2017-08-10 14:00:00 17.5 9 Norte 33 Norte 0 -- -- 79
2017-08-10 13:00:00 18.3 19 Norte 33 Norte 0 -- -- 77
2017-08-10 12:00:00 18.3 4 Norte 23 Noroeste 0.2 -- -- 88
2017-08-10 11:00:00 16.4 9 Noroeste 23 Oeste 0 -- -- 90
2017-08-10 10:00:00 15.7 13 Noroeste 25 Noroeste 0.2 -- -- 94
2017-08-10 09:00:00 14.9 8 Oeste 19 Oeste 0.8 -- -- 99
2017-08-10 08:00:00 13.9 5 Sudoeste 15 Sudoeste 0 -- -- 100
2017-08-10 07:00:00 13.5 8 Sudoeste 13 Sudoeste 0 -- -- 99
2017-08-10 06:00:00 13.7 8 Sudoeste 15 Oeste 1.2 -- -- 98
2017-08-10 05:00:00 14.3 10 Sudoeste 22 Oeste 0.2 -- -- 95
2017-08-10 04:00:00 14.9 9 Noroeste 22 Noroeste 0 -- -- 93
2017-08-10 03:00:00 14 10 Sudoeste 18 Sudoeste 0 -- -- 97
2017-08-10 02:00:00 14 5 Sudoeste 12 Sudoeste 0.2 -- -- 98
2017-08-10 01:00:00 14.2 3 Sur 15 Oeste 0 -- -- 96
2017-08-10 00:00:00 15 4 Oeste 16 Nordeste 1 -- -- 89
2017-08-09 23:00:00 15.6 6 Oeste 14 Oeste 0 -- -- 86
2017-08-09 22:00:00 16.9 5 Noroeste 27 Norte 0 -- -- 71
2017-08-09 21:00:00 16.9 13 Norte 24 Norte 0 -- -- 74
2017-08-09 20:00:00 18 10 Norte 30 Norte 0.4 -- -- 77
2017-08-09 19:00:00 19.4 9 Norte 32 Norte 0 -- -- 72
2017-08-09 18:00:00 19.4 22 Norte 37 Norte 0 -- -- 70
2017-08-09 17:00:00 20.9 19 Norte 36 Norte 0 -- -- 61
2017-08-09 16:00:00 20.8 21 Norte 43 Norte 0 -- -- 61
2017-08-09 15:00:00 19.3 18 Norte 40 Norte 0 -- -- 66
2017-08-09 14:00:00 20.1 18 Norte 37 Nordeste 0 -- -- 67
2017-08-09 13:00:00 18.3 4 Sudoeste 27 Oeste 1 -- -- 81
2017-08-09 12:00:00 15.8 6 Noroeste 31 Nordeste 4 -- -- 91
2017-08-09 11:00:00 17 9 Sudoeste 17 Sudoeste 0 -- -- 91
2017-08-09 10:00:00 14.8 11 Oeste 19 Oeste 0.6 -- -- 94
2017-08-09 09:00:00 14.3 6 Norte 14 Nordeste 1.2 -- -- 98
2017-08-09 08:00:00 14.6 3 Noroeste 15 Este 1.4 -- -- 97
2017-08-09 07:00:00 14.6 5 Sudoeste 10 Sudoeste 0 -- -- 96
2017-08-09 06:00:00 14.7 4 Sudoeste 9 Sur 0 -- -- 96
2017-08-09 05:00:00 14.8 8 Sudoeste 12 Oeste 0 -- -- 95
2017-08-09 04:00:00 15.4 2 Este 16 Noroeste 0 -- -- 91
2017-08-09 03:00:00 15.5 5 Noroeste 9 Noroeste 0 -- -- 95
2017-08-09 02:00:00 15.5 5 Sudoeste 8 Sudoeste 0 -- -- 94
2017-08-09 01:00:00 15.6 5 Sudoeste 9 Sudoeste 0 -- -- 93
2017-08-09 00:00:00 15.8 5 Sudoeste 7 Oeste 0 -- -- 93
2017-08-08 23:00:00 16.3 4 Noroeste 12 Noroeste 0.2 -- -- 91
2017-08-08 22:00:00 17.1 6 Sudoeste 12 Sudoeste 0 -- -- 82
2017-08-08 21:00:00 18.4 4 Oeste 7 Norte 0 -- -- 75
2017-08-08 20:00:00 21.1 4 Norte 11 Norte 0 -- -- 65
2017-08-08 19:00:00 20.4 6 Noroeste 14 Norte 0 -- -- 69
2017-08-08 18:00:00 19.8 7 Norte 21 Noroeste 0 -- -- 75
2017-08-08 17:00:00 20.5 10 Norte 21 Norte 0 -- -- 70
2017-08-08 16:00:00 18.8 5 Oeste 14 Sudoeste 0 -- -- 85
2017-08-08 15:00:00 17.2 8 Norte 26 Norte 0.4 -- -- 86
2017-08-08 14:00:00 18.2 14 Nordeste 38 Norte 0 -- -- 84
2017-08-08 13:00:00 17.9 6 Sudeste 20 Noroeste 0.4 -- -- 85
2017-08-08 12:00:00 18.1 10 Oeste 31 Oeste 0.2 -- -- 81
2017-08-08 11:00:00 17.2 13 Noroeste 28 Noroeste 0 -- -- 87
2017-08-08 10:00:00 18.1 6 Oeste 16 Oeste 0 -- -- 82
2017-08-08 09:00:00 15.5 9 Sudoeste 16 Sudoeste 0 -- -- 95
2017-08-08 08:00:00 15.5 6 Sur 19 Oeste 0 -- -- 95
2017-08-08 07:00:00 15.6 9 Oeste 14 Oeste 0 -- -- 91
2017-08-08 06:00:00 16 9 Oeste 13 Oeste 0 -- -- 90
2017-08-08 05:00:00 17.2 9 Noroeste 35 Norte 0.2 -- -- 76
2017-08-08 04:00:00 17.4 13 Norte 31 Norte 0 -- -- 76
2017-08-08 03:00:00 17.4 13 Norte 28 Norte 0 -- -- 86
2017-08-08 02:00:00 17.3 7 Norte 28 Norte 0.2 -- -- 90
2017-08-08 01:00:00 17.5 8 Noroeste 33 Norte 0 -- -- 89
2017-08-08 00:00:00 17.9 17 Norte 37 Norte 0.6 -- -- 90
2017-08-07 23:00:00 19.2 21 Norte 32 Norte 0.2 -- -- 89
2017-08-07 22:00:00 19.3 9 Noroeste 21 Noroeste 0.4 -- -- 91
2017-08-07 21:00:00 20.6 4 Noroeste 14 Oeste 0 -- -- 82
2017-08-07 20:00:00 20.9 3 Nordeste 24 Norte 0 -- -- 81
2017-08-07 19:00:00 21.8 4 Norte 19 Norte 0 -- -- 78
2017-08-07 18:00:00 21.9 9 Norte 19 Nordeste 0 -- -- 77
2017-08-07 17:00:00 22.3 7 Nordeste 16 Este 0 -- -- 77
2017-08-07 16:00:00 22.5 7 Nordeste 22 Nordeste 0 -- -- 77
2017-08-07 15:00:00 23.9 9 Nordeste 26 Norte 0 -- -- 73
2017-08-07 14:00:00 25.7 13 Nordeste 25 Norte 0 -- -- 68
2017-08-07 13:00:00 25.6 6 Nordeste 14 Sudeste 0 -- -- 68
2017-08-07 12:00:00 23.9 4 Noroeste 13 Oeste 0 -- -- 69
2017-08-07 11:00:00 22.2 6 Oeste 13 Oeste 0 -- -- 78
2017-08-07 10:00:00 21.5 5 Sudoeste 13 Sudoeste 0 -- -- 79
2017-08-07 09:00:00 18 6 Sudoeste 10 Sudoeste 0 -- -- 91
2017-08-07 08:00:00 16 4 Sudoeste 7 Sudoeste 0 -- -- 98
2017-08-07 07:00:00 15.9 4 Sudoeste 8 Sudoeste 0 -- -- 96
2017-08-07 06:00:00 16.1 3 Sudoeste 6 Sur 0 -- -- 96
2017-08-07 05:00:00 16.4 4 Sudoeste 6 Sudoeste 0 -- -- 95
2017-08-07 04:00:00 16.3 3 Sudoeste 5 Oeste 0 -- -- 96
2017-08-07 03:00:00 16.4 4 Sudoeste 6 Sudoeste 0 -- -- 94
2017-08-07 02:00:00 16.6 3 Sur 4 Sudoeste 0 -- -- 92
2017-08-07 01:00:00 17.1 0 Calma 8 Sur 0 -- -- 91
2017-08-07 00:00:00 18.2 3 Oeste 4 Noroeste 0 -- -- 87
2017-08-06 23:00:00 19 2 Oeste 5 Sudeste 0 -- -- 85
2017-08-06 22:00:00 19.8 0 Calma 5 Nordeste 0 -- -- 77
2017-08-06 21:00:00 20.3 4 Nordeste 14 Este 0 -- -- 74
2017-08-06 20:00:00 20.7 10 Este 18 Este 0 -- -- 70
2017-08-06 19:00:00 21.5 7 Este 23 Este 0 -- -- 71
2017-08-06 18:00:00 21.9 13 Este 28 Norte 0 -- -- 65
2017-08-06 17:00:00 24.3 13 Nordeste 24 Nordeste 0 -- -- 64
2017-08-06 16:00:00 23 13 Nordeste 24 Norte 0 -- -- 65
2017-08-06 15:00:00 23.4 14 Nordeste 24 Norte 0 -- -- 67
2017-08-06 14:00:00 23.6 13 Nordeste 23 Norte 0 -- -- 63
2017-08-06 13:00:00 22.9 12 Nordeste 24 Norte 0 -- -- 65
2017-08-06 12:00:00 21.6 11 Norte 20 Norte 0 -- -- 66
2017-08-06 11:00:00 22.4 5 Este 12 Norte 0 -- -- 63
2017-08-06 10:00:00 19.2 4 Sur 6 Sudeste 0 -- -- 86
2017-08-06 09:00:00 16.9 5 Sudoeste 8 Oeste 0 -- -- 100
2017-08-06 08:00:00 16.2 6 Sudoeste 8 Sudoeste 0 -- -- 99
2017-08-06 07:00:00 16.4 4 Oeste 6 Sudoeste 0 -- -- 97
2017-08-06 06:00:00 16.5 2 Nordeste 8 Norte 0 -- -- 92
2017-08-06 05:00:00 16.6 2 Norte 6 Nordeste 0 -- -- 93
2017-08-06 04:00:00 16.8 0 Calma 5 Sudoeste 0 -- -- 100
2017-08-06 03:00:00 17 2 Sudoeste 5 Oeste 0 -- -- 99
2017-08-06 02:00:00 17.1 5 Oeste 8 Oeste 0 -- -- 99
2017-08-06 01:00:00 17.2 0 Calma 4 Noroeste 0 -- -- 99
2017-08-06 00:00:00 17.2 2 Norte 5 Norte 0 -- -- 98
2017-08-05 23:00:00 17.4 5 Norte 11 Norte 0.4 -- -- 98
2017-08-05 22:00:00 17.7 4 Norte 7 Nordeste 0.4 -- -- 96
2017-08-05 21:00:00 18.2 0 Calma 9 Noroeste 0 -- -- 93
2017-08-05 20:00:00 18.4 6 Norte 16 Norte 0 -- -- 92
2017-08-05 19:00:00 19 3 Este 9 Norte 0 -- -- 89
2017-08-05 18:00:00 19.1 8 Norte 20 Nordeste 0 -- -- 87
2017-08-05 17:00:00 19.6 10 Nordeste 25 Norte 0 -- -- 84
2017-08-05 16:00:00 19.2 7 Nordeste 20 Norte 0 -- -- 89
2017-08-05 15:00:00 18.5 12 Nordeste 31 Norte 1 -- -- 98
2017-08-05 14:00:00 19.2 14 Norte 24 Norte 0 -- -- 97
2017-08-05 13:00:00 19.5 12 Norte 22 Norte 0.2 -- -- 98
2017-08-05 12:00:00 19.6 9 Nordeste 19 Nordeste 0.4 -- -- 99
2017-08-05 11:00:00 19.6 9 Norte 19 Norte 0.2 -- -- 99
2017-08-05 10:00:00 19.4 9 Norte 19 Norte 0.4 -- -- 100
2017-08-05 09:00:00 19.2 10 Norte 23 Nordeste 0.6 -- -- 99
2017-08-05 08:00:00 19.8 13 Norte 23 Norte 0.2 -- -- 99
2017-08-05 07:00:00 20.5 11 Norte 17 Norte 0 -- -- 98
2017-08-05 06:00:00 20.3 5 Nordeste 10 Nordeste 2.6 -- -- 99
2017-08-05 05:00:00 20.2 2 Sur 5 Oeste 1 -- -- 96
2017-08-05 04:00:00 20.4 4 Oeste 6 Sudoeste 0 -- -- 93
2017-08-05 03:00:00 20.3 4 Oeste 6 Oeste 0 -- -- 91
2017-08-05 02:00:00 21 3 Oeste 4 Oeste 0 -- -- 89
2017-08-05 01:00:00 21.1 0 Calma 4 Nordeste 0 -- -- 89
2017-08-05 00:00:00 21.7 3 Nordeste 6 Nordeste 0 -- -- 85
2017-08-04 23:00:00 22.6 4 Nordeste 6 Nordeste 0 -- -- 82
2017-08-04 22:00:00 23.4 4 Nordeste 13 Este 0 -- -- 76
2017-08-04 21:00:00 24.9 9 Este 16 Este 0 -- -- 71
2017-08-04 20:00:00 26.5 8 Este 22 Este 0 -- -- 67
2017-08-04 19:00:00 28.2 11 Este 22 Nordeste 0 -- -- 60
2017-08-04 18:00:00 29.8 9 Nordeste 22 Este 0 -- -- 57
2017-08-04 17:00:00 29.6 12 Este 24 Nordeste 0 -- -- 57
2017-08-04 16:00:00 30.6 14 Nordeste 26 Norte 0 -- -- 56
2017-08-04 15:00:00 31.1 14 Nordeste 25 Nordeste 0 -- -- 54
2017-08-04 14:00:00 31.4 12 Nordeste 19 Norte 0 -- -- 53
2017-08-04 13:00:00 30.4 8 Nordeste 17 Nordeste 0 -- -- 58
2017-08-04 12:00:00 28.8 6 Sudeste 12 Este 0 -- -- 61
2017-08-04 11:00:00 27.2 4 Sur 10 Sudeste 0 -- -- 68
2017-08-04 10:00:00 24.7 4 Sudoeste 9 Sur 0 -- -- 78
2017-08-04 09:00:00 22.1 3 Sudoeste 7 Sudoeste 0 -- -- 88
2017-08-04 08:00:00 19.3 4 Sudoeste 7 Sur 0 -- -- 98
2017-08-04 07:00:00 19.5 2 Sudeste 3 Sur 0 -- -- 96
2017-08-04 06:00:00 19.8 0 Calma 6 Oeste 0 -- -- 96
2017-08-04 05:00:00 19.7 4 Sudoeste 5 Sudoeste 0 -- -- 96
2017-08-04 04:00:00 19.6 2 Norte 4 Norte 0 -- -- 96
2017-08-04 03:00:00 19.8 2 Noroeste 5 Nordeste 0 -- -- 94
2017-08-04 02:00:00 19.8 3 Nordeste 6 Nordeste 0 -- -- 95
2017-08-04 01:00:00 19.7 4 Nordeste 6 Nordeste 0 -- -- 95
2017-08-04 00:00:00 20.1 3 Nordeste 6 Norte 0 -- -- 92
2017-08-03 23:00:00 20.9 4 Nordeste 12 Nordeste 0 -- -- 89
2017-08-03 22:00:00 21.8 6 Nordeste 21 Nordeste 0 -- -- 87
2017-08-03 21:00:00 22.8 10 Nordeste 23 Norte 0 -- -- 85
2017-08-03 20:00:00 25.2 13 Norte 26 Nordeste 0 -- -- 74
2017-08-03 19:00:00 26.3 15 Norte 28 Nordeste 0 -- -- 68
2017-08-03 18:00:00 28.3 11 Nordeste 23 Norte 0 -- -- 59
2017-08-03 17:00:00 29 14 Norte 25 Norte 0 -- -- 54
2017-08-03 16:00:00 29 13 Nordeste 22 Nordeste 0 -- -- 58
2017-08-03 15:00:00 28.6 13 Nordeste 25 Norte 0 -- -- 60
2017-08-03 14:00:00 28.1 17 Nordeste 26 Nordeste 0 -- -- 63
2017-08-03 13:00:00 27.1 13 Nordeste 22 Nordeste 0 -- -- 69
2017-08-03 12:00:00 26.5 8 Nordeste 15 Nordeste 0 -- -- 71
2017-08-03 11:00:00 24.7 4 Nordeste 8 Este 0 -- -- 73
2017-08-03 10:00:00 21.7 0 Calma 5 Este 0 -- -- 84
2017-08-03 09:00:00 18.2 4 Sudoeste 12 Sudoeste 0 -- -- 99
2017-08-03 08:00:00 15.5 5 Sudoeste 8 Sudoeste 0 -- -- 100
2017-08-03 07:00:00 15.4 4 Sudoeste 6 Sudoeste 0 -- -- 100
2017-08-03 06:00:00 15.6 4 Sudoeste 10 Oeste 0 -- -- 99
2017-08-03 05:00:00 16 6 Sudoeste 9 Sudoeste 0 -- -- 99
2017-08-03 04:00:00 16.5 0 Calma 9 Sudoeste 0 -- -- 99
2017-08-03 03:00:00 16.9 5 Sudoeste 9 Sur 0 -- -- 97
2017-08-03 02:00:00 17.5 2 Sudoeste 4 Norte 0 -- -- 97
2017-08-03 01:00:00 17.8 2 Noroeste 10 Sudoeste 0 -- -- 95
2017-08-03 00:00:00 18.7 6 Sudoeste 9 Sudoeste 0 -- -- 92
2017-08-02 23:00:00 19.7 4 Sudoeste 6 Sudoeste 0 -- -- 88
2017-08-02 22:00:00 20.6 2 Norte 7 Norte 0 -- -- 84
2017-08-02 21:00:00 22.3 5 Norte 12 Norte 0 -- -- 78
2017-08-02 20:00:00 24.2 8 Norte 20 Nordeste 0 -- -- 72
2017-08-02 19:00:00 24.9 10 Nordeste 24 Norte 0 -- -- 69
2017-08-02 18:00:00 26.2 15 Norte 25 Norte 0 -- -- 65
2017-08-02 17:00:00 26.4 15 Norte 28 Norte 0 -- -- 64
2017-08-02 16:00:00 27 14 Norte 31 Norte 0 -- -- 65
2017-08-02 15:00:00 26.5 17 Nordeste 30 Norte 0 -- -- 67
2017-08-02 14:00:00 26.2 12 Nordeste 21 Nordeste 0 -- -- 69
2017-08-02 13:00:00 26 11 Nordeste 19 Nordeste 0 -- -- 68
2017-08-02 12:00:00 25.4 5 Sur 15 Sudeste 0 -- -- 66
2017-08-02 11:00:00 23.8 3 Este 9 Sudoeste 0 -- -- 69
2017-08-02 10:00:00 21.2 4 Sudeste 7 Sudoeste 0 -- -- 82
2017-08-02 09:00:00 17.8 3 Sudoeste 8 Sudoeste 0 -- -- 98
2017-08-02 08:00:00 15.7 3 Sudoeste 5 Sudoeste 0 -- -- 100
2017-08-02 07:00:00 15.8 3 Sudoeste 6 Sudoeste 0 -- -- 99
2017-08-02 06:00:00 16.1 4 Sudoeste 6 Oeste 0 -- -- 98
2017-08-02 05:00:00 17 3 Sudoeste 4 Sudoeste 0 -- -- 97
2017-08-02 04:00:00 17.7 0 Calma 5 Sudoeste 0 -- -- 95
2017-08-02 03:00:00 18.1 4 Sudoeste 5 Sudoeste 0 -- -- 94
2017-08-02 02:00:00 18.3 0 Calma 3 Este 0 -- -- 93
2017-08-02 01:00:00 18.3 2 Norte 3 Nordeste 0 -- -- 92
2017-08-02 00:00:00 18.7 0 Calma 5 Nordeste 0 -- -- 89
2017-08-01 23:00:00 19.3 0 Calma 5 Nordeste 0 -- -- 86
2017-08-01 22:00:00 19.6 3 Nordeste 9 Este 0 -- -- 84
2017-08-01 21:00:00 20.5 7 Este 18 Sudeste 0 -- -- 79
2017-08-01 20:00:00 20.8 10 Este 23 Sudeste 0 -- -- 79
2017-08-01 19:00:00 21.4 13 Este 27 Sudeste 0 -- -- 78
2017-08-01 18:00:00 22.3 12 Este 23 Este 0 -- -- 79
2017-08-01 17:00:00 23.3 13 Sudeste 23 Este 0 -- -- 76
2017-08-01 16:00:00 22.9 13 Este 23 Sudeste 0 -- -- 75
2017-08-01 15:00:00 23.3 13 Este 20 Este 0 -- -- 74
2017-08-01 14:00:00 21.7 10 Este 17 Este 0 -- -- 83
2017-08-01 13:00:00 22 4 Sudeste 10 Sudeste 0 -- -- 86
2017-08-01 12:00:00 19.7 4 Oeste 7 Sudoeste 0.4 -- -- 97
2017-08-01 11:00:00 19.2 3 Sudoeste 6 Sudoeste 0.2 -- -- 100
2017-08-01 10:00:00 17.9 3 Oeste 6 Sudoeste 0.2 -- -- 100
2017-08-01 09:00:00 17.4 3 Sur 6 Noroeste 0 -- -- 100
2017-08-01 08:00:00 16.9 0 Calma 8 Sur 0 -- -- 100
2017-08-01 07:00:00 16.9 3 Sur 6 Sudoeste 0 -- -- 100
2017-08-01 06:00:00 16.8 5 Oeste 8 Oeste 0 -- -- 100
2017-08-01 05:00:00 16.6 2 Este 8 Oeste 0 -- -- 99
2017-08-01 04:00:00 17 4 Sur 8 Noroeste 0 -- -- 99
2017-08-01 03:00:00 17.2 0 Calma 8 Sudoeste 0 -- -- 98
2017-08-01 02:00:00 17.5 2 Sudoeste 6 Oeste 0 -- -- 97
2017-08-01 01:00:00 17.8 3 Sudoeste 7 Sur 0 -- -- 96
2017-08-01 00:00:00 18.1 5 Oeste 7 Oeste 0 -- -- 95
2017-07-31 23:00:00 18.4 2 Sudeste 8 Norte 0 -- -- 92
2017-07-31 22:00:00 18.9 4 Norte 8 Norte 0 -- -- 89
2017-07-31 21:00:00 19.8 3 Nordeste 15 Nordeste 0 -- -- 88
2017-07-31 20:00:00 20.2 4 Nordeste 9 Norte 0 -- -- 90
2017-07-31 19:00:00 20.3 8 Norte 13 Norte 0 -- -- 88
2017-07-31 18:00:00 19.9 5 Norte 17 Norte 0 -- -- 92
2017-07-31 17:00:00 19.8 9 Norte 16 Norte 0 -- -- 95
2017-07-31 16:00:00 19.3 10 Norte 17 Norte 0.8 -- -- 98
2017-07-31 15:00:00 19.8 9 Norte 18 Nordeste 0 -- -- 95
2017-07-31 14:00:00 20.2 8 Nordeste 15 Norte 0 -- -- 93
2017-07-31 13:00:00 20.3 10 Norte 16 Nordeste 0 -- -- 94
2017-07-31 12:00:00 19.2 6 Nordeste 13 Norte 0 -- -- 100
2017-07-31 11:00:00 18.3 2 Norte 5 Sudeste 0.8 -- -- 100
2017-07-31 10:00:00 17.9 2 Sudeste 5 Norte 1 -- -- 100
2017-07-31 09:00:00 17.6 0 Calma -- -- 0.4 -- -- 100
2017-07-31 08:00:00 17.4 0 Calma 6 Este 0.2 -- -- 99
2017-07-31 07:00:00 17.5 3 Sur 10 Noroeste 0.2 -- -- 98
2017-07-31 06:00:00 17.6 4 Sudoeste 6 Oeste 0 -- -- 96
2017-07-31 05:00:00 17.6 0 Calma 4 Sur 0 -- -- 96
2017-07-31 04:00:00 17.8 0 Calma 5 Sudoeste 0 -- -- 94
2017-07-31 03:00:00 18 3 Sudoeste 5 Sudoeste 0 -- -- 92
2017-07-31 02:00:00 18.2 0 Calma 5 Sudoeste 0 -- -- 90
2017-07-31 01:00:00 18.4 0 Calma 5 Sur 0 -- -- 90
2017-07-31 00:00:00 18.7 4 Sudoeste 8 Sudoeste 0 -- -- 89
2017-07-30 23:00:00 19.2 4 Sudoeste 6 Oeste 0 -- -- 87
2017-07-30 22:00:00 19.9 0 Calma 2 Nordeste 0 -- -- 82
2017-07-30 21:00:00 20.4 0 Calma 7 Norte 0 -- -- 81
2017-07-30 20:00:00 20.8 5 Norte 13 Norte 0 -- -- 77
2017-07-30 19:00:00 21.2 9 Nordeste 20 Norte 0 -- -- 75
2017-07-30 18:00:00 21.4 9 Norte 18 Nordeste 0 -- -- 73
2017-07-30 17:00:00 21.1 7 Nordeste 22 Nordeste 0 -- -- 81
2017-07-30 16:00:00 21.4 14 Nordeste 25 Nordeste 0 -- -- 81
2017-07-30 15:00:00 22.8 14 Nordeste 26 Nordeste 0 -- -- 79
2017-07-30 14:00:00 22.4 8 Nordeste 17 Nordeste 0 -- -- 86
2017-07-30 13:00:00 21.7 5 Nordeste 13 Norte 0.2 -- -- 89
2017-07-30 12:00:00 21 6 Norte 14 Nordeste 0 -- -- 92
2017-07-30 11:00:00 20.4 2 Norte 6 Oeste 0 -- -- 94
2017-07-30 10:00:00 19.3 0 Calma 8 Oeste 0 -- -- 92
2017-07-30 09:00:00 18.4 0 Calma 6 Sur 0 -- -- 95
2017-07-30 08:00:00 18.3 4 Sudoeste 9 Sudoeste 0 -- -- 92
2017-07-30 07:00:00 17.9 5 Oeste 7 Oeste 0 -- -- 93
2017-07-30 06:00:00 17.6 0 Calma 9 Sudoeste 0 -- -- 93
2017-07-30 05:00:00 17.5 5 Sudoeste 10 Sudoeste 0 -- -- 93
2017-07-30 04:00:00 17.7 4 Sudoeste 6 Oeste 0 -- -- 91
2017-07-30 03:00:00 17.8 3 Sudoeste 9 Sudoeste 0 -- -- 90
2017-07-30 02:00:00 18.5 4 Oeste 8 Sudoeste 0 -- -- 86
2017-07-30 01:00:00 19.6 4 Sudoeste 10 Sudoeste 0 -- -- 82
2017-07-30 00:00:00 20.5 5 Sudoeste 15 Noroeste 0 -- -- 78
2017-07-29 23:00:00 21.2 4 Nordeste 12 Sudoeste 0 -- -- 73
2017-07-29 22:00:00 23.6 2 Nordeste 9 Nordeste 0 -- -- 60
2017-07-29 21:00:00 25.3 3 Este 16 Este 0 -- -- 59
2017-07-29 20:00:00 26.5 11 Este 24 Este 0 -- -- 56
2017-07-29 19:00:00 27.3 12 Este 21 Este 0 -- -- 57
2017-07-29 18:00:00 28.1 12 Este 19 Nordeste 0 -- -- 53
2017-07-29 17:00:00 29.4 9 Nordeste 19 Norte 0 -- -- 43
2017-07-29 16:00:00 29 10 Nordeste 26 Norte 0 -- -- 49
2017-07-29 15:00:00 27.7 12 Nordeste 24 Nordeste 0 -- -- 64
2017-07-29 14:00:00 27.4 13 Nordeste 24 Nordeste 0 -- -- 64
2017-07-29 13:00:00 28.2 10 Nordeste 18 Nordeste 0 -- -- 56
2017-07-29 12:00:00 26.9 5 Sudoeste 10 Sudoeste 0 -- -- 52
2017-07-29 11:00:00 24.6 3 Sudeste 9 Este 0 -- -- 66
2017-07-29 10:00:00 21.4 5 Oeste 9 Sudoeste 0 -- -- 82
2017-07-29 09:00:00 19.1 0 Calma 6 Sur 0 -- -- 93
2017-07-29 08:00:00 16.5 5 Sudoeste 8 Sur 0 -- -- 100
2017-07-29 07:00:00 16 6 Oeste 9 Sudoeste 0 -- -- 100
2017-07-29 06:00:00 16.3 2 Sudoeste 6 Sudoeste 0 -- -- 99
2017-07-29 05:00:00 16.6 5 Sudoeste 9 Sudoeste 0 -- -- 99
2017-07-29 04:00:00 16.7 3 Sur 8 Sudoeste 0 -- -- 99
2017-07-29 03:00:00 16.8 4 Sudoeste 9 Sudoeste 0 -- -- 98
2017-07-29 02:00:00 17.2 3 Sudoeste 7 Sudoeste 0 -- -- 97
2017-07-29 01:00:00 17.8 4 Sudoeste 6 Oeste 0 -- -- 94
2017-07-29 00:00:00 18.7 3 Sudoeste 5 Sudoeste 0 -- -- 92
2017-07-28 23:00:00 19.7 2 Oeste 6 Norte 0 -- -- 88
2017-07-28 22:00:00 20.2 5 Norte 12 Nordeste 0 -- -- 86
2017-07-28 21:00:00 21.3 5 Nordeste 15 Este 0 -- -- 82
2017-07-28 20:00:00 23.2 7 Nordeste 17 Norte 0 -- -- 75
2017-07-28 19:00:00 24.1 10 Este 21 Este 0 -- -- 74
2017-07-28 18:00:00 24.5 13 Este 24 Este 0 -- -- 74
2017-07-28 17:00:00 24.6 13 Este 24 Este 0 -- -- 73
2017-07-28 16:00:00 24.7 15 Este 23 Este 0 -- -- 72
2017-07-28 15:00:00 24.4 13 Este 19 Este 0 -- -- 74
2017-07-28 14:00:00 23.1 11 Este 18 Este 0 -- -- 77
2017-07-28 13:00:00 23.1 6 Nordeste 13 Este 0 -- -- 80
2017-07-28 12:00:00 22.9 3 Nordeste 10 Norte 0 -- -- 78
2017-07-28 11:00:00 21.5 4 Norte 8 Norte 0 -- -- 87
2017-07-28 10:00:00 19.5 0 Calma 4 Norte 0 -- -- 98
2017-07-28 09:00:00 19.1 2 Norte 4 Sudoeste 0 -- -- 99
2017-07-28 08:00:00 18.7 3 Sudoeste 4 Sudoeste 0 -- -- 99
2017-07-28 07:00:00 18.7 0 Calma 4 Oeste 0 -- -- 99
2017-07-28 06:00:00 18.6 2 Sudoeste 5 Sudoeste 0 -- -- 99
2017-07-28 05:00:00 18.8 0 Calma 6 Nordeste 0.2 -- -- 98
2017-07-28 04:00:00 18.9 4 Nordeste 14 Nordeste 0 -- -- 96
2017-07-28 03:00:00 19.4 6 Nordeste 12 Nordeste 0 -- -- 93
2017-07-28 02:00:00 19.6 2 Nordeste 10 Nordeste 0 -- -- 96
2017-07-28 01:00:00 20 7 Nordeste 16 Nordeste 0 -- -- 93
2017-07-28 00:00:00 20.8 5 Nordeste 13 Nordeste 0 -- -- 89
2017-07-27 23:00:00 21.1 0 Calma 4 Nordeste 0 -- -- 88
2017-07-27 22:00:00 21.3 3 Nordeste 8 Norte 0 -- -- 87
2017-07-27 21:00:00 21.8 6 Nordeste 15 Norte 0 -- -- 84
2017-07-27 20:00:00 22.6 8 Nordeste 19 Nordeste 0 -- -- 81
2017-07-27 19:00:00 24.4 10 Norte 24 Norte 0 -- -- 75
2017-07-27 18:00:00 26.7 12 Norte 28 Nordeste 0 -- -- 71
2017-07-27 17:00:00 28.1 14 Nordeste 29 Norte 0 -- -- 63
2017-07-27 16:00:00 27.9 14 Nordeste 28 Norte 0 -- -- 64
2017-07-27 15:00:00 26.5 17 Norte -- -- -- -- -- 67
2017-07-27 14:00:00 -- -- -- -- -- -- -- -- --
2017-07-27 13:00:00 -- -- -- -- -- -- -- -- --
2017-07-27 12:00:00 -- -- -- -- -- -- -- -- --
2017-07-27 11:00:00 23.1 4 Sudoeste 10 Oeste 0 -- -- 72
2017-07-27 10:00:00 19 5 Sudoeste 11 Sudoeste 0 -- -- 99
2017-07-27 09:00:00 15.3 0 Calma 10 Sudoeste 0 -- -- 100
2017-07-27 08:00:00 14.3 5 Sudoeste 8 Sur 0 -- -- 100
2017-07-27 07:00:00 13.8 3 Oeste 8 Sur 0 -- -- 100
2017-07-27 06:00:00 13.9 3 Sur 9 Oeste 0 -- -- 100
2017-07-27 05:00:00 13.8 6 Sudoeste 9 Sudoeste 0 -- -- 100
2017-07-27 04:00:00 14.2 2 Sur 9 Sudoeste 0 -- -- 100
2017-07-27 03:00:00 14.7 5 Sudoeste 7 Sudoeste 0 -- -- 99
2017-07-27 02:00:00 15.3 4 Sudoeste 6 Sudoeste 0 -- -- 98
2017-07-27 01:00:00 15.8 3 Sur 9 Sudoeste 0 -- -- 97
2017-07-27 00:00:00 16.4 5 Sudoeste 9 Sudoeste 0 -- -- 95
2017-07-26 23:00:00 17.3 0 Calma 8 Norte 0 -- -- 91
2017-07-26 22:00:00 18.3 6 Norte 13 Norte 0 -- -- 87
2017-07-26 21:00:00 20.6 8 Norte 17 Norte 0 -- -- 79
2017-07-26 20:00:00 22.9 8 Nordeste 21 Norte 0 -- -- 74
2017-07-26 19:00:00 23.5 10 Nordeste 24 Nordeste 0 -- -- 71
2017-07-26 18:00:00 24.2 13 Norte 24 Norte 0 -- -- 70
2017-07-26 17:00:00 24.5 12 Nordeste 26 Norte 0 -- -- 67
2017-07-26 16:00:00 24.7 14 Nordeste 27 Nordeste 0 -- -- 65
2017-07-26 15:00:00 25 14 Nordeste 25 Norte 0 -- -- 64
2017-07-26 14:00:00 24.5 14 Nordeste 23 Norte 0 -- -- 64
2017-07-26 13:00:00 24.2 12 Nordeste 22 Norte 0 -- -- 65
2017-07-26 12:00:00 23.4 5 Sur 15 Oeste 0 -- -- 62
2017-07-26 11:00:00 21.3 5 Oeste 11 Oeste 0 -- -- 73
2017-07-26 10:00:00 18.5 6 Sudoeste 12 Sudoeste 0 -- -- 84
2017-07-26 09:00:00 15.8 7 Sudoeste 12 Sudoeste 0 -- -- 99
2017-07-26 08:00:00 14.2 6 Sudoeste 9 Sudoeste 0 -- -- 100
2017-07-26 07:00:00 13.4 7 Sudoeste 12 Sudoeste 0 -- -- 99
2017-07-26 06:00:00 13.7 8 Sudoeste 11 Sudoeste 0 -- -- 99
2017-07-26 05:00:00 14 7 Sudoeste 10 Sudoeste 0 -- -- 99
2017-07-26 04:00:00 14.2 4 Sudoeste 8 Sudoeste 0 -- -- 99
2017-07-26 03:00:00 14.2 4 Sudoeste 11 Sudoeste 0 -- -- 98
2017-07-26 02:00:00 14.4 4 Sudoeste 10 Sudoeste 0 -- -- 98
2017-07-26 01:00:00 14.6 5 Sudoeste 13 Sudoeste 0 -- -- 97
2017-07-26 00:00:00 15.4 7 Sudoeste 11 Sudoeste 0 -- -- 94
2017-07-25 23:00:00 16.6 6 Sudoeste 9 Sudoeste 0 -- -- 91
2017-07-25 22:00:00 17.4 4 Oeste 9 Norte 0 -- -- 84
2017-07-25 21:00:00 19.1 8 Norte 18 Norte 0 -- -- 77
2017-07-25 20:00:00 21.4 10 Norte 18 Norte 0 -- -- 70
2017-07-25 19:00:00 21.1 8 Nordeste 20 Norte 0 -- -- 74
2017-07-25 18:00:00 21 11 Norte 25 Nordeste 0 -- -- 73
2017-07-25 17:00:00 21.1 12 Norte 24 Norte 0 -- -- 76
2017-07-25 16:00:00 20.9 11 Nordeste 24 Nordeste 0 -- -- 78
2017-07-25 15:00:00 19.5 4 Norte 8 Norte 0 -- -- 88
2017-07-25 14:00:00 18.9 0 Calma 8 Sudoeste 0 -- -- 95
2017-07-25 13:00:00 18.1 5 Sudoeste 9 Sur 0.2 -- -- 97
2017-07-25 12:00:00 17.5 5 Sur 14 Sudoeste 0 -- -- 96
2017-07-25 11:00:00 17.9 6 Sudoeste 12 Sudoeste 0.2 -- -- 97
2017-07-25 10:00:00 17.6 2 Sur 9 Sudoeste 0 -- -- 100
2017-07-25 09:00:00 16.2 8 Sudoeste 11 Sudoeste 0 -- -- 100
2017-07-25 08:00:00 15.4 5 Sudoeste 8 Sudoeste 0 -- -- 100
2017-07-25 07:00:00 15.2 4 Sur 6 Sudoeste 0 -- -- 100
2017-07-25 06:00:00 15 5 Sudoeste 12 Sudoeste 0 -- -- 100
2017-07-25 05:00:00 15 6 Sudoeste 11 Oeste 0 -- -- 100
2017-07-25 04:00:00 15.5 7 Sudoeste 11 Sudoeste 0 -- -- 100
2017-07-25 03:00:00 16.1 5 Sudoeste 8 Sudoeste 0 -- -- 100
2017-07-25 02:00:00 16.3 6 Sudoeste 10 Oeste 0 -- -- 100
2017-07-25 01:00:00 16.5 4 Oeste 7 Oeste 0.2 -- -- 100
2017-07-25 00:00:00 16.6 4 Sudoeste 9 Sudoeste 0.4 -- -- 99
2017-07-24 23:00:00 16.8 5 Sudoeste 11 Norte 0 -- -- 98
2017-07-24 22:00:00 17.1 6 Norte 16 Nordeste 0 -- -- 97
2017-07-24 21:00:00 17.6 6 Norte 14 Norte 0.2 -- -- 97
2017-07-24 20:00:00 18.1 5 Nordeste 14 Norte 0.4 -- -- 98
2017-07-24 19:00:00 18.3 6 Nordeste 14 Norte 2 -- -- 97
2017-07-24 18:00:00 18.7 5 Este 30 Norte 0 -- -- 93
2017-07-24 17:00:00 19.3 9 Nordeste 27 Norte 0.8 -- -- 93
2017-07-24 16:00:00 20.3 12 Nordeste 30 Norte 0 -- -- 88
2017-07-24 15:00:00 20.5 13 Norte 26 Norte 0.4 -- -- 83
2017-07-24 14:00:00 20.7 12 Norte 35 Norte 0.4 -- -- 84
2017-07-24 13:00:00 21 17 Norte 38 Norte 0 -- -- 77
2017-07-24 12:00:00 20 11 Norte 23 Norte 0 -- -- 86
2017-07-24 11:00:00 19.9 6 Nordeste 21 Nordeste 0 -- -- 89
2017-07-24 10:00:00 19.1 6 Sur 14 Sur 0 -- -- 92
2017-07-24 09:00:00 18.4 3 Noroeste 21 Norte 0 -- -- 94
2017-07-24 08:00:00 17.9 8 Oeste 32 Norte 0.2 -- -- 93
2017-07-24 07:00:00 18.2 12 Norte 33 Nordeste 0.6 -- -- 94
2017-07-24 06:00:00 18.5 15 Norte 33 Norte 0.6 -- -- 95
2017-07-24 05:00:00 18.4 4 Norte 12 Noroeste 0.2 -- -- 98
2017-07-24 04:00:00 18.3 5 Sur 12 Oeste 0.4 -- -- 97
2017-07-24 03:00:00 18.2 4 Nordeste 13 Sur 0.2 -- -- 97
2017-07-24 02:00:00 17.9 9 Oeste 16 Oeste 0.2 -- -- 96
2017-07-24 01:00:00 19.3 8 Oeste 13 Oeste 0 -- -- 84
2017-07-24 00:00:00 19.5 3 Noroeste 13 Oeste 0 -- -- 81
2017-07-23 23:00:00 19.6 7 Sudoeste 12 Sudoeste 0 -- -- 79
2017-07-23 22:00:00 20.1 3 Oeste 8 Oeste 0 -- -- 76
2017-07-23 21:00:00 21.2 3 Norte 8 Norte 0 -- -- 74
2017-07-23 20:00:00 22.2 5 Norte 14 Norte 0 -- -- 67
2017-07-23 19:00:00 23.5 9 Norte 19 Norte 0 -- -- 67
2017-07-23 18:00:00 23 12 Nordeste 28 Nordeste 0 -- -- 67
2017-07-23 17:00:00 25 15 Nordeste 28 Nordeste 0 -- -- 64
2017-07-23 16:00:00 25.8 12 Norte 21 Nordeste 0 -- -- 63
2017-07-23 15:00:00 24.3 9 Nordeste 20 Nordeste 0 -- -- 64
2017-07-23 14:00:00 23.1 12 Nordeste 38 Este 0 -- -- 66
2017-07-23 13:00:00 22.3 4 Nordeste 20 Norte 0 -- -- 65
2017-07-23 12:00:00 22.7 3 Sudeste 10 Nordeste 0 -- -- 63
2017-07-23 11:00:00 22.3 5 Oeste 10 Oeste 0 -- -- 67
2017-07-23 10:00:00 18.8 3 Oeste 8 Sudoeste 0 -- -- 84
2017-07-23 09:00:00 16.7 3 Sur 10 Sudoeste 0 -- -- 94
2017-07-23 08:00:00 15.8 7 Sudoeste 10 Sudoeste 0 -- -- 97
2017-07-23 07:00:00 15.5 5 Sudoeste 9 Sudoeste 0 -- -- 97
2017-07-23 06:00:00 15.8 5 Sudoeste 9 Sudoeste 0 -- -- 95
2017-07-23 05:00:00 16.7 4 Sudoeste 7 Sudoeste 0 -- -- 93
2017-07-23 04:00:00 17 4 Sudoeste 8 Sudoeste 0 -- -- 92
2017-07-23 03:00:00 17.1 4 Sudoeste 7 Sudoeste 0 -- -- 91
2017-07-23 02:00:00 17.2 4 Sudoeste 8 Sudoeste 0 -- -- 90
2017-07-23 01:00:00 17.3 3 Oeste 11 Oeste 0 -- -- 91
2017-07-23 00:00:00 17.7 8 Oeste 12 Noroeste 0 -- -- 88